Time;durP1;ratioP1;P1;durP2;ratioP2;P2;SDS_P1;SDS_P2;PMS_P1;PMS_P2;Temp;Humidity;BMP_temperature;BMP_pressure;BME280_temperature;BME280_humidity;BME280_pressure;Samples;Min_cycle;Max_cycle;Signal;HPM_P1;HPM_P2
2023/07/14 00:00:15;;;;;;;4.07;3.38;;;;;;;21.52;nan;100808.50;4946422;28;20487;-73
2023/07/14 00:02:43;;;;;;;4.60;3.38;;;;;;;21.38;nan;100803.06;4944487;28;20039;-72
2023/07/14 00:05:13;;;;;;;6.13;2.92;;;;;;;21.32;nan;100793.47;4940588;29;20054;-72
2023/07/14 00:07:39;;;;;;;5.70;3.15;;;;;;;21.24;nan;100796.78;4945237;29;20028;-72
2023/07/14 00:10:21;;;;;;;4.53;2.83;;;;;;;21.08;nan;100782.78;4945930;28;20039;-72
2023/07/14 00:12:49;;;;;;;4.95;2.20;;;;;;;20.98;nan;100772.19;4948416;28;20035;-72
2023/07/14 00:15:15;;;;;;;4.88;2.88;;;;;;;20.87;nan;100755.44;4947584;29;20035;-73
2023/07/14 00:17:41;;;;;;;6.15;2.65;;;;;;;20.79;nan;100722.06;4949534;28;20512;-73
2023/07/14 00:20:28;;;;;;;2.60;2.03;;;;;;;20.75;nan;100729.06;4935194;29;20036;-72
2023/07/14 00:22:54;;;;;;;4.50;2.08;;;;;;;20.70;nan;100729.13;4951895;28;20035;-72
2023/07/14 00:25:22;;;;;;;7.70;2.30;;;;;;;20.65;nan;100720.38;4949688;29;20023;-72
2023/07/14 00:27:49;;;;;;;6.00;2.50;;;;;;;20.61;nan;100720.13;4936905;29;20082;-73
2023/07/14 00:30:17;;;;;;;3.15;2.00;;;;;;;20.57;nan;100714.56;4950200;28;20020;-72
2023/07/14 00:32:43;;;;;;;3.58;2.17;;;;;;;20.50;nan;100705.25;4936288;29;20042;-73
2023/07/14 00:35:23;;;;;;;3.00;2.17;;;;;;;20.46;nan;100701.53;4950064;28;20040;-72
2023/07/14 00:37:51;;;;;;;4.28;2.17;;;;;;;20.40;nan;100688.22;4950112;28;20036;-72
2023/07/14 00:40:19;;;;;;;4.68;2.50;;;;;;;20.44;nan;100693.78;4949914;28;20321;-72
2023/07/14 00:42:54;;;;;;;4.32;2.30;;;;;;;20.36;nan;100667.66;4947516;29;20043;-73
2023/07/14 00:45:21;;;;;;;4.55;2.20;;;;;;;20.39;nan;100659.06;4949419;28;20052;-73
2023/07/14 00:47:52;;;;;;;8.57;2.70;;;;;;;20.35;nan;100642.81;4950333;28;20094;-73
2023/07/14 00:50:37;;;;;;;3.67;2.38;;;;;;;20.36;nan;100643.59;4936530;29;20016;-72
2023/07/14 00:53:18;;;;;;;5.85;2.50;;;;;;;20.34;nan;100613.66;4947958;29;20403;-72
2023/07/14 00:55:48;;;;;;;5.10;2.67;;;;;;;20.38;nan;100607.47;4945473;28;20086;-72
2023/07/14 00:58:23;;;;;;;5.90;2.85;;;;;;;20.38;nan;100601.31;4945407;28;20734;-72
2023/07/14 01:01:04;;;;;;;9.20;2.92;;;;;;;20.39;nan;100594.88;4944816;28;20131;-73
2023/07/14 01:03:30;;;;;;;5.78;2.80;;;;;;;20.34;nan;100581.56;4928856;29;20059;-73
2023/07/14 01:06:02;;;;;;;5.93;3.05;;;;;;;20.27;nan;100555.16;4946525;28;20031;-73
2023/07/14 01:08:30;;;;;;;5.22;2.78;;;;;;;20.24;nan;100539.69;4944924;28;20046;-72
2023/07/14 01:10:56;;;;;;;5.68;3.00;;;;;;;20.12;nan;100532.09;4944800;28;20039;-72
2023/07/14 01:13:23;;;;;;;8.95;2.83;;;;;;;20.16;nan;100537.63;4935335;28;20632;-73
2023/07/14 01:15:50;;;;;;;8.10;3.00;;;;;;;20.15;nan;100554.78;4942232;28;20035;-72
2023/07/14 01:18:16;;;;;;;6.82;3.17;;;;;;;20.11;nan;100543.06;4941500;28;20038;-73
2023/07/14 01:20:41;;;;;;;10.15;3.13;;;;;;;20.03;nan;100543.69;4944917;28;20024;-73
2023/07/14 01:23:32;;;;;;;6.45;2.88;;;;;;;19.99;nan;100546.13;4940643;28;20054;-73
2023/07/14 01:26:09;;;;;;;4.28;2.72;;;;;;;20.01;nan;100527.94;4940723;28;20026;-73
2023/07/14 01:28:35;;;;;;;9.38;2.97;;;;;;;19.91;nan;100501.31;4940644;28;20031;-72
2023/07/14 01:31:02;;;;;;;4.88;2.22;;;;;;;19.96;nan;100514.63;4923267;29;20038;-72
2023/07/14 01:33:27;;;;;;;4.75;2.90;;;;;;;19.94;nan;100506.91;4940992;28;20762;-72
2023/07/14 01:35:57;;;;;;;6.75;2.50;;;;;;;19.98;nan;100534.63;4924923;29;20046;-73
2023/07/14 01:38:22;;;;;;;6.72;3.15;;;;;;;20.00;nan;100533.56;4941601;28;20526;-72
2023/07/14 01:40:48;;;;;;;4.60;3.03;;;;;;;19.92;nan;100506.38;4928572;29;20090;-72
2023/07/14 01:43:13;;;;;;;6.32;3.10;;;;;;;19.98;nan;100509.78;4946071;28;20023;-72
2023/07/14 01:46:02;;;;;;;13.57;3.00;;;;;;;19.97;nan;100519.69;4940875;28;20047;-73
2023/07/14 01:48:53;;;;;;;11.10;2.90;;;;;;;19.91;nan;100520.81;4941819;28;20034;-72
2023/07/14 01:51:19;;;;;;;4.43;2.75;;;;;;;19.81;nan;100512.91;4914476;28;20157;-73
2023/07/14 01:53:56;;;;;;;6.97;3.00;;;;;;;19.83;nan;100521.44;4943222;28;20045;-72
2023/07/14 01:56:24;;;;;;;4.80;2.90;;;;;;;19.85;nan;100537.19;4929801;28;20077;-72
2023/07/14 01:59:03;;;;;;;6.97;3.00;;;;;;;19.89;nan;100544.34;4923564;28;20037;-72
2023/07/14 02:01:29;;;;;;;9.45;3.05;;;;;;;19.83;nan;100529.47;4940932;28;20059;-72
2023/07/14 02:03:57;;;;;;;5.65;2.92;;;;;;;19.91;nan;100547.53;4954174;28;20040;-72
2023/07/14 02:06:23;;;;;;;5.20;3.28;;;;;;;19.89;nan;100538.22;4926031;29;20139;-73
2023/07/14 02:08:50;;;;;;;6.25;3.15;;;;;;;19.97;nan;100556.31;4939457;28;20442;-72
2023/07/14 02:11:19;;;;;;;5.03;3.00;;;;;;;19.92;nan;100551.81;4923755;28;20610;-73
2023/07/14 02:13:46;;;;;;;6.88;2.97;;;;;;;19.90;nan;100562.00;4942714;28;20051;-72
2023/07/14 02:16:15;;;;;;;7.03;3.50;;;;;;;19.89;nan;100559.59;4940408;28;20034;-72
2023/07/14 02:18:41;;;;;;;;;;;;;;;19.93;nan;100571.31;4937833;28;20110;-71
2023/07/14 02:21:07;;;;;;;7.15;3.33;;;;;;;19.86;nan;100573.53;4939789;28;19922;-72
2023/07/14 02:23:32;;;;;;;5.88;3.25;;;;;;;19.85;nan;100574.59;4939370;28;20386;-72
2023/07/14 02:26:05;;;;;;;5.88;3.53;;;;;;;19.93;nan;100592.72;4941021;28;20034;-72
2023/07/14 02:28:30;;;;;;;9.13;3.70;;;;;;;19.84;nan;100584.50;4936352;28;20500;-72
2023/07/14 02:31:11;;;;;;;6.88;3.20;;;;;;;19.78;nan;100585.63;4939294;28;20028;-72
2023/07/14 02:33:39;;;;;;;5.05;3.20;;;;;;;19.80;nan;100599.53;4940930;28;20029;-72
2023/07/14 02:36:20;;;;;;;5.10;3.20;;;;;;;19.83;nan;100606.97;4937630;28;20082;-73
2023/07/14 02:38:46;;;;;;;8.48;3.40;;;;;;;19.80;nan;100596.03;4943370;28;20032;-72
2023/07/14 02:41:22;;;;;;;11.25;3.97;;;;;;;19.87;nan;100608.00;4940879;28;20031;-73
2023/07/14 02:43:53;;;;;;;13.32;3.75;;;;;;;19.87;nan;100612.53;4941965;28;20047;-71
2023/07/14 02:46:28;;;;;;;8.27;3.65;;;;;;;19.87;nan;100617.88;4938747;28;20032;-72
2023/07/14 02:48:53;;;;;;;6.35;3.40;;;;;;;19.83;nan;100611.53;4938694;29;20016;-72
2023/07/14 02:51:19;;;;;;;6.80;3.45;;;;;;;19.86;nan;100618.97;4938109;28;20035;-72
2023/07/14 02:53:45;;;;;;;5.53;3.00;;;;;;;19.89;nan;100623.75;4940537;28;20027;-73
2023/07/14 02:56:10;;;;;;;5.15;3.25;;;;;;;19.82;nan;100617.94;4940784;28;20031;-72
2023/07/14 02:58:36;;;;;;;6.03;3.35;;;;;;;19.76;nan;100625.19;4937308;28;20067;-73
2023/07/14 03:01:04;;;;;;;5.30;3.60;;;;;;;19.69;nan;100625.53;4942092;28;20035;-73
2023/07/14 03:03:29;;;;;;;9.02;4.10;;;;;;;19.72;nan;100635.63;4925664;29;20051;-73
2023/07/14 03:05:55;;;;;;;10.60;3.67;;;;;;;19.74;nan;100638.03;4938731;28;20028;-73
2023/07/14 03:08:20;;;;;;;7.75;3.90;;;;;;;19.76;nan;100639.34;4941429;28;20765;-72
2023/07/14 03:10:48;;;;;;;8.38;3.53;;;;;;;19.71;nan;100631.38;4937928;28;20039;-72
2023/07/14 03:13:16;;;;;;;6.93;3.70;;;;;;;19.72;nan;100634.84;4923780;29;20713;-73
2023/07/14 03:15:43;;;;;;;10.32;3.65;;;;;;;19.77;nan;100653.50;4940601;28;20568;-72
2023/07/14 03:18:08;;;;;;;4.95;3.58;;;;;;;19.73;nan;100655.94;4928888;29;20032;-73
2023/07/14 03:20:34;;;;;;;8.07;3.63;;;;;;;19.75;nan;100656.47;4929111;28;20035;-72
2023/07/14 03:22:59;;;;;;;9.18;4.07;;;;;;;19.76;nan;100657.25;4939507;28;20058;-73
2023/07/14 03:25:26;;;;;;;7.28;4.18;;;;;;;19.82;nan;100663.34;4941079;29;20126;-72
2023/07/14 03:27:51;;;;;;;10.98;4.53;;;;;;;19.76;nan;100651.94;4940492;28;20058;-72
2023/07/14 03:30:17;;;;;;;14.65;6.40;;;;;;;19.77;nan;100658.84;4928572;29;20020;-73
2023/07/14 03:32:42;;;;;;;16.90;9.18;;;;;;;19.68;nan;100650.66;4937299;28;20127;-73
2023/07/14 03:35:08;;;;;;;13.30;8.75;;;;;;;19.66;nan;100647.44;4924850;29;20042;-73
2023/07/14 03:37:34;;;;;;;16.80;8.15;;;;;;;19.70;nan;100645.00;4919999;29;20039;-72
2023/07/14 03:39:59;;;;;;;11.98;7.60;;;;;;;19.70;nan;100650.34;4928776;29;20024;-72
2023/07/14 03:42:25;;;;;;;13.30;7.68;;;;;;;19.68;nan;100647.97;4937411;28;20043;-72
2023/07/14 03:44:50;;;;;;;11.32;6.35;;;;;;;19.67;nan;100645.56;4935742;29;20024;-73
2023/07/14 03:47:15;;;;;;;8.07;5.95;;;;;;;19.73;nan;100655.16;4935684;28;20035;-73
2023/07/14 03:49:41;;;;;;;13.82;5.00;;;;;;;19.71;nan;100644.75;4938200;29;20032;-73
2023/07/14 03:52:07;;;;;;;8.70;4.63;;;;;;;19.70;nan;100650.34;4939920;28;20028;-72
2023/07/14 03:54:33;;;;;;;8.60;4.47;;;;;;;19.63;nan;100634.59;4939394;28;20031;-72
2023/07/14 03:56:58;;;;;;;8.90;4.75;;;;;;;19.61;nan;100636.78;4937170;28;20478;-72
2023/07/14 03:59:25;;;;;;;8.55;4.18;;;;;;;19.69;nan;100652.25;4933345;28;20031;-72
2023/07/14 04:01:50;;;;;;;9.82;4.45;;;;;;;19.70;nan;100653.81;4916981;29;20044;-73
2023/07/14 04:04:15;;;;;;;7.57;4.35;;;;;;;19.76;nan;100659.94;4938400;28;20071;-77
2023/07/14 04:06:41;;;;;;;12.90;4.30;;;;;;;19.72;nan;100648.22;4923158;29;20547;-75
2023/07/14 04:09:07;;;;;;;7.68;4.18;;;;;;;19.68;nan;100645.31;4941788;28;20111;-72
2023/07/14 04:11:36;;;;;;;8.98;3.75;;;;;;;19.68;nan;100634.63;4939282;28;20127;-72
2023/07/14 04:14:05;;;;;;;;;;;;;;;19.77;nan;100651.63;4935999;28;20915;-71
2023/07/14 04:16:30;;;;;;;11.45;4.13;;;;;;;19.79;nan;100650.56;4921102;29;19938;-72
2023/07/14 04:18:56;;;;;;;7.53;3.53;;;;;;;19.75;nan;100651.13;4937399;28;20035;-73
2023/07/14 04:21:24;;;;;;;5.82;3.28;;;;;;;19.78;nan;100649.78;4939174;28;20082;-74
2023/07/14 04:23:54;;;;;;;5.53;3.67;;;;;;;19.84;nan;100663.88;4927415;28;20035;-74
2023/07/14 04:26:20;;;;;;;8.43;4.47;;;;;;;19.85;nan;100676.16;4939128;28;20023;-73
2023/07/14 04:28:45;;;;;;;8.50;4.15;;;;;;;19.91;nan;100696.44;4923211;29;20069;-73
2023/07/14 04:31:11;;;;;;;6.55;4.45;;;;;;;19.98;nan;100697.69;4928633;29;20085;-73
2023/07/14 04:33:36;;;;;;;7.93;5.28;;;;;;;19.97;nan;100684.63;4940765;28;20496;-73
2023/07/14 04:36:02;;;;;;;10.52;5.13;;;;;;;20.04;nan;100693.13;4935206;28;20055;-73
2023/07/14 04:38:29;;;;;;;7.80;4.85;;;;;;;20.05;nan;100689.34;4936833;28;20030;-73
2023/07/14 04:40:55;;;;;;;9.30;5.70;;;;;;;20.01;nan;100674.16;4939561;28;20027;-77
2023/07/14 04:43:21;;;;;;;11.00;5.70;;;;;;;20.09;nan;100693.06;4942731;28;20074;-76
2023/07/14 04:45:49;;;;;;;11.05;5.80;;;;;;;20.07;nan;100684.53;4946073;28;20091;-77
2023/07/14 04:48:17;;;;;;;9.43;5.90;;;;;;;20.12;nan;100691.72;4958689;28;20051;-77
2023/07/14 04:50:46;;;;;;;12.43;6.65;;;;;;;20.19;nan;100692.97;4944694;28;20042;-76
2023/07/14 04:53:14;;;;;;;14.90;7.55;;;;;;;20.13;nan;100685.28;4937765;28;20031;-70
2023/07/14 04:55:41;;;;;;;13.48;7.00;;;;;;;20.21;nan;100690.03;4936655;28;20103;-71
2023/07/14 04:58:08;;;;;;;14.75;7.90;;;;;;;20.24;nan;100696.69;4940430;28;20024;-73
2023/07/14 05:00:35;;;;;;;16.88;8.15;;;;;;;20.17;nan;100684.44;4943142;28;20465;-72
2023/07/14 05:03:01;;;;;;;13.13;7.97;;;;;;;20.27;nan;100699.56;4942280;28;20085;-72
2023/07/14 05:05:26;;;;;;;14.25;8.25;;;;;;;20.28;nan;100708.38;4937519;28;20040;-72
2023/07/14 05:07:52;;;;;;;13.48;8.48;;;;;;;20.33;nan;100703.81;4943528;28;20039;-72
2023/07/14 05:10:20;;;;;;;16.08;8.50;;;;;;;20.34;nan;100700.03;4929366;29;20561;-72
2023/07/14 05:12:49;;;;;;;13.20;8.48;;;;;;;20.38;nan;100700.28;4939791;28;20066;-71
2023/07/14 05:15:15;;;;;;;16.20;8.30;;;;;;;20.37;nan;100696.78;4949521;28;20051;-73
2023/07/14 05:17:41;;;;;;;14.07;7.88;;;;;;;20.52;nan;100719.94;4951149;28;20040;-73
2023/07/14 05:20:10;;;;;;;13.50;8.35;;;;;;;20.57;nan;100714.56;4947989;28;20024;-72
2023/07/14 05:22:39;;;;;;;;;;;;;;;20.62;nan;100711.03;4943484;28;20067;-73
2023/07/14 05:25:05;;;;;;;11.07;7.57;;;;;;;20.67;nan;100723.56;4940581;28;19922;-72
2023/07/14 05:27:31;;;;;;;14.27;8.68;;;;;;;20.62;nan;100715.59;4930590;29;20035;-72
2023/07/14 05:29:56;;;;;;;17.38;8.60;;;;;;;20.75;nan;100720.25;4944400;28;20028;-73
2023/07/14 05:32:24;;;;;;;14.75;8.77;;;;;;;20.76;nan;100719.97;4952966;28;20039;-73
2023/07/14 05:34:49;;;;;;;12.23;8.60;;;;;;;20.76;nan;100717.28;4947853;28;20052;-73
2023/07/14 05:37:15;;;;;;;14.93;9.45;;;;;;;20.65;nan;100697.06;4950334;28;20027;-73
2023/07/14 05:39:41;;;;;;;16.52;9.98;;;;;;;20.87;nan;100733.22;4937729;29;20011;-74
2023/07/14 05:42:07;;;;;;;15.35;9.18;;;;;;;20.91;nan;100734.25;4949912;28;20054;-74
2023/07/14 05:44:32;;;;;;;15.98;9.45;;;;;;;20.93;nan;100732.91;4945558;29;20031;-72
2023/07/14 05:46:58;;;;;;;16.35;10.10;;;;;;;20.89;nan;100731.06;4933806;28;20027;-73
2023/07/14 05:49:26;;;;;;;17.50;9.82;;;;;;;21.00;nan;100745.94;4926139;29;20059;-73
2023/07/14 05:51:52;;;;;;;18.75;10.48;;;;;;;20.97;nan;100741.13;4945917;29;20031;-72
2023/07/14 05:54:17;;;;;;;183.70;71.30;;;;;;;20.95;nan;100741.44;4941361;28;20138;-73
2023/07/14 05:56:43;;;;;;;32.03;21.45;;;;;;;21.02;nan;100736.53;4943217;28;20027;-72
2023/07/14 05:59:10;;;;;;;15.95;10.75;;;;;;;21.04;nan;100745.06;4940951;28;20023;-72
2023/07/14 06:01:36;;;;;;;15.68;10.30;;;;;;;21.03;nan;100742.69;4921341;29;20050;-71
2023/07/14 06:04:02;;;;;;;16.58;11.75;;;;;;;21.09;nan;100762.16;4939601;29;20031;-72
2023/07/14 06:06:27;;;;;;;13.43;10.70;;;;;;;21.02;nan;100746.41;4921158;29;20066;-71
2023/07/14 06:08:55;;;;;;;16.52;10.63;;;;;;;21.08;nan;100771.28;4939067;28;20078;-71
2023/07/14 06:11:21;;;;;;;16.30;10.93;;;;;;;21.09;nan;100772.84;4923618;29;20034;-74
2023/07/14 06:13:46;;;;;;;14.88;11.48;;;;;;;20.94;nan;100749.75;4941283;29;20020;-75
2023/07/14 06:16:12;;;;;;;26.48;11.32;;;;;;;21.11;nan;100765.34;4941499;28;20027;-72
2023/07/14 06:18:37;;;;;;;13.15;10.40;;;;;;;21.17;nan;100774.91;4937985;28;20387;-73
2023/07/14 06:21:02;;;;;;;12.50;10.43;;;;;;;21.12;nan;100756.22;4937105;28;20050;-74
2023/07/14 06:23:28;;;;;;;16.55;10.60;;;;;;;21.16;nan;100762.59;4937726;29;20378;-73
2023/07/14 06:25:54;;;;;;;15.30;10.55;;;;;;;21.20;nan;100772.44;4941814;28;20521;-72
2023/07/14 06:28:20;;;;;;;16.88;11.13;;;;;;;21.32;nan;100784.63;4946139;29;20586;-72
2023/07/14 06:30:46;;;;;;;14.63;10.82;;;;;;;21.37;nan;100784.56;4921193;29;20032;-72
2023/07/14 06:33:12;;;;;;;15.43;10.77;;;;;;;21.49;nan;100784.19;4941423;28;20027;-72
2023/07/14 06:35:39;;;;;;;17.48;10.73;;;;;;;21.62;nan;100786.13;4939384;28;20023;-73
2023/07/14 06:38:04;;;;;;;14.02;10.65;;;;;;;21.68;nan;100776.94;4924156;29;20573;-73
2023/07/14 06:40:30;;;;;;;15.43;10.23;;;;;;;21.64;nan;100770.56;4941453;28;20106;-73
2023/07/14 06:42:55;;;;;;;14.13;11.02;;;;;;;21.66;nan;100768.41;4937089;29;20024;-73
2023/07/14 06:45:21;;;;;;;14.80;10.85;;;;;;;21.78;nan;100773.31;4938922;28;20035;-73
2023/07/14 06:47:46;;;;;;;15.50;10.93;;;;;;;21.76;nan;100776.28;4926614;29;20026;-73
2023/07/14 06:50:12;;;;;;;18.70;11.18;;;;;;;21.79;nan;100775.72;4923733;29;20078;-73
2023/07/14 06:52:38;;;;;;;15.57;10.93;;;;;;;21.84;nan;100778.31;4939711;28;20170;-72
2023/07/14 06:55:07;;;;;;;13.07;10.68;;;;;;;21.90;nan;100781.72;4938911;28;20019;-73
2023/07/14 06:57:33;;;;;;;19.80;11.15;;;;;;;21.94;nan;100789.97;4940778;28;20032;-72
2023/07/14 06:59:58;;;;;;;17.20;11.15;;;;;;;21.94;nan;100782.72;4940423;28;20020;-72
2023/07/14 07:02:24;;;;;;;14.88;11.10;;;;;;;21.95;nan;100775.47;4930215;29;20498;-72
2023/07/14 07:04:49;;;;;;;16.52;11.13;;;;;;;22.06;nan;100784.97;4942360;28;20606;-73
2023/07/14 07:07:15;;;;;;;16.83;11.55;;;;;;;22.03;nan;100774.81;4939768;28;20031;-74
2023/07/14 07:09:40;;;;;;;16.00;11.45;;;;;;;22.11;nan;100781.41;4941148;28;20026;-73
2023/07/14 07:12:08;;;;;;;15.38;11.82;;;;;;;21.97;nan;100754.53;4925540;29;20173;-73
2023/07/14 07:14:33;;;;;;;16.17;10.68;;;;;;;22.25;nan;100785.75;4942628;28;20027;-72
2023/07/14 07:16:59;;;;;;;16.45;11.65;;;;;;;22.26;nan;100778.50;4939402;28;20028;-75
2023/07/14 07:19:24;;;;;;;21.00;11.60;;;;;;;22.45;nan;100798.00;4941079;28;20037;-73
2023/07/14 07:21:49;;;;;;;16.73;10.93;;;;;;;22.42;nan;100781.72;4940245;28;20027;-73
2023/07/14 07:24:15;;;;;;;16.00;11.88;;;;;;;22.37;nan;100795.22;4955478;28;20027;-72
2023/07/14 07:26:40;;;;;;;14.68;10.85;;;;;;;22.45;nan;100798.00;4936570;29;20027;-72
2023/07/14 07:29:06;;;;;;;15.00;11.73;;;;;;;22.48;nan;100799.31;4938953;28;20015;-72
2023/07/14 07:31:31;;;;;;;18.20;11.98;;;;;;;22.47;nan;100787.00;4936711;28;20031;-73
2023/07/14 07:33:56;;;;;;;14.25;11.18;;;;;;;22.56;nan;100797.88;4939014;28;20940;-71
2023/07/14 07:36:24;;;;;;;13.40;10.77;;;;;;;22.61;nan;100801.25;4925735;29;20498;-71
2023/07/14 07:38:51;;;;;;;14.10;11.27;;;;;;;22.70;nan;100799.47;4934441;28;20067;-71
2023/07/14 07:41:23;;;;;;;18.67;11.60;;;;;;;22.83;nan;100810.50;4936628;29;20026;-70
2023/07/14 07:43:48;;;;;;;14.77;11.18;;;;;;;22.89;nan;100809.31;4942480;28;20041;-71
2023/07/14 07:46:14;;;;;;;18.13;11.07;;;;;;;22.96;nan;100819.66;4939404;28;20482;-71
2023/07/14 07:48:42;;;;;;;15.48;10.98;;;;;;;23.00;nan;100812.66;4939350;28;20036;-71
2023/07/14 07:51:07;;;;;;;14.30;11.57;;;;;;;23.01;nan;100814.22;4943164;28;20031;-70
2023/07/14 07:53:33;;;;;;;14.98;11.10;;;;;;;23.03;nan;100820.88;4940066;28;20027;-71
2023/07/14 07:55:59;;;;;;;14.23;10.70;;;;;;;23.06;nan;100819.53;4923388;29;20031;-72
2023/07/14 07:58:25;;;;;;;15.65;10.55;;;;;;;23.05;nan;100810.66;4928054;29;20073;-72
2023/07/14 08:00:54;;;;;;;13.70;9.82;;;;;;;23.16;nan;100823.91;4935258;28;20059;-72
2023/07/14 08:03:20;;;;;;;14.85;10.90;;;;;;;23.09;nan;100806.28;4929074;29;20039;-71
2023/07/14 08:05:46;;;;;;;17.40;11.50;;;;;;;23.12;nan;100811.03;4923985;29;20078;-70
2023/07/14 08:08:11;;;;;;;18.23;11.25;;;;;;;23.24;nan;100812.44;4924916;29;20035;-70
2023/07/14 08:10:42;;;;;;;13.60;11.15;;;;;;;23.22;nan;100795.81;4938927;28;20389;-70
2023/07/14 08:13:09;;;;;;;16.38;11.85;;;;;;;23.35;nan;100816.50;4939611;28;20035;-70
2023/07/14 08:15:38;;;;;;;15.93;11.48;;;;;;;23.40;nan;100812.94;4937286;28;20020;-70
2023/07/14 08:18:06;;;;;;;13.88;11.07;;;;;;;23.42;nan;100811.53;4922898;29;20490;-73
2023/07/14 08:20:37;;;;;;;16.25;11.20;;;;;;;23.49;nan;100817.28;4929636;28;20039;-73
2023/07/14 08:23:05;;;;;;;15.02;11.15;;;;;;;23.51;nan;100811.59;4941261;28;20047;-73
2023/07/14 08:25:31;;;;;;;14.82;12.07;;;;;;;23.54;nan;100817.19;4940215;28;20031;-72
2023/07/14 08:27:57;;;;;;;15.80;11.32;;;;;;;23.57;nan;100816.56;4939911;29;20030;-72
2023/07/14 08:30:22;;;;;;;15.43;11.18;;;;;;;23.49;nan;100798.47;4926318;29;20027;-72
2023/07/14 08:32:49;;;;;;;16.65;11.85;;;;;;;23.50;nan;100805.44;4942660;28;20058;-72
2023/07/14 08:35:16;;;;;;;15.23;11.57;;;;;;;23.50;nan;100813.50;4945638;28;20054;-72
2023/07/14 08:37:41;;;;;;;16.33;12.02;;;;;;;23.54;nan;100811.81;4942863;28;20031;-74
2023/07/14 08:40:12;;;;;;;15.63;11.75;;;;;;;23.48;nan;100818.38;4926283;29;20499;-72
2023/07/14 08:42:51;;;;;;;13.18;11.77;;;;;;;23.54;nan;100821.78;4940013;28;20027;-72
2023/07/14 08:45:36;;;;;;;16.00;10.20;;;;;;;23.57;nan;100813.88;4939089;28;20039;-73
2023/07/14 08:48:18;;;;;;;17.58;11.82;;;;;;;23.70;nan;100814.16;4924086;29;20070;-72
2023/07/14 08:50:48;;;;;;;24.60;13.07;;;;;;;23.67;nan;100804.78;4930169;29;20398;-73
2023/07/14 08:53:25;;;;;;;18.20;12.73;;;;;;;23.76;nan;100813.75;4943507;28;20027;-72
2023/07/14 08:55:58;;;;;;;50.85;17.83;;;;;;;23.81;nan;100807.47;4941995;29;20035;-73
2023/07/14 08:58:27;;;;;;;13.20;10.38;;;;;;;23.99;nan;100817.28;4944589;28;20027;-75
2023/07/14 09:00:55;;;;;;;14.80;11.60;;;;;;;24.11;nan;100818.63;4939906;29;20047;-74
2023/07/14 09:03:29;;;;;;;15.13;10.63;;;;;;;24.20;nan;100814.88;4923433;29;20035;-75
2023/07/14 09:05:58;;;;;;;13.93;10.45;;;;;;;24.28;nan;100813.38;4944998;28;20031;-73
2023/07/14 09:08:29;;;;;;;15.30;11.13;;;;;;;24.37;nan;100810.72;4940416;28;20382;-74
2023/07/14 09:10:54;;;;;;;13.90;10.23;;;;;;;24.44;nan;100816.47;4941831;28;20064;-73
2023/07/14 09:13:46;;;;;;;13.17;10.67;;;;;;;24.47;nan;100809.69;4941657;28;20054;-72
2023/07/14 09:16:12;;;;;;;15.82;10.80;;;;;;;24.50;nan;100809.09;4940141;28;20281;-72
2023/07/14 09:18:55;;;;;;;13.95;10.63;;;;;;;24.53;nan;100811.94;4942697;29;20027;-71
2023/07/14 09:21:25;;;;;;;15.50;10.93;;;;;;;24.60;nan;100809.63;4931485;29;20259;-73
2023/07/14 09:23:59;;;;;;;15.55;10.32;;;;;;;24.68;nan;100805.38;4928688;29;20553;-72
2023/07/14 09:26:39;;;;;;;11.77;10.50;;;;;;;24.75;nan;100802.22;4938712;28;20118;-71
2023/07/14 09:29:30;;;;;;;14.35;10.52;;;;;;;24.82;nan;100806.06;4938259;28;20047;-75
2023/07/14 09:32:11;;;;;;;12.10;9.57;;;;;;;24.90;nan;100809.09;4940904;28;20023;-73
2023/07/14 09:34:40;;;;;;;17.38;9.63;;;;;;;24.93;nan;100797.72;4942193;29;20038;-73
2023/07/14 09:37:21;;;;;;;12.82;9.75;;;;;;;24.95;nan;100787.41;4932851;28;20063;-75
2023/07/14 09:39:51;;;;;;;15.55;10.57;;;;;;;25.11;nan;100798.56;4939141;28;20016;-71
2023/07/14 09:42:25;;;;;;;14.02;10.20;;;;;;;25.19;nan;100800.53;4921170;29;20048;-72
2023/07/14 09:44:58;;;;;;;13.55;9.10;;;;;;;25.29;nan;100804.81;4924052;29;20044;-72
2023/07/14 09:47:24;;;;;;;14.65;9.65;;;;;;;25.33;nan;100801.19;4936516;28;20029;-72
2023/07/14 09:49:57;;;;;;;15.73;9.90;;;;;;;25.39;nan;100791.81;4929930;29;20027;-72
2023/07/14 09:52:25;;;;;;;13.13;9.57;;;;;;;25.47;nan;100790.25;4927369;28;20042;-72
2023/07/14 09:54:57;;;;;;;58.13;17.17;;;;;;;25.51;nan;100775.03;4939879;28;20485;-72
2023/07/14 09:57:28;;;;;;;12.27;9.23;;;;;;;25.74;nan;100793.75;4937083;28;20035;-73
2023/07/14 09:59:59;;;;;;;11.55;8.43;;;;;;;25.73;nan;100784.88;4937486;28;20521;-73
2023/07/14 10:02:27;;;;;;;11.45;8.48;;;;;;;25.89;nan;100790.63;4940543;29;20051;-75
2023/07/14 10:04:58;;;;;;;10.98;9.43;;;;;;;25.97;nan;100789.81;4922898;28;20509;-75
2023/07/14 10:07:27;;;;;;;16.83;9.20;;;;;;;26.07;nan;100783.28;4938585;29;20058;-74
2023/07/14 10:10:12;;;;;;;14.95;9.45;;;;;;;26.07;nan;100778.69;4940010;28;20061;-75
2023/07/14 10:12:43;;;;;;;24.35;10.65;;;;;;;26.05;nan;100767.41;4937599;28;20035;-75
2023/07/14 10:15:26;;;;;;;13.13;8.65;;;;;;;26.13;nan;100765.03;4931580;29;20039;-75
2023/07/14 10:17:53;;;;;;;20.42;8.50;;;;;;;26.10;nan;100761.84;4940441;28;20038;-75
2023/07/14 10:20:21;;;;;;;9.85;7.60;;;;;;;26.19;nan;100769.91;4938673;29;20027;-74
2023/07/14 10:22:51;;;;;;;36.67;13.63;;;;;;;26.20;nan;100744.53;4921760;29;20024;-75
2023/07/14 10:25:18;;;;;;;17.92;9.23;;;;;;;26.35;nan;100759.41;4936876;28;20054;-75
2023/07/14 10:27:56;;;;;;;11.55;8.30;;;;;;;26.37;nan;100751.00;4936450;29;20047;-75
2023/07/14 10:30:41;;;;;;;14.18;7.95;;;;;;;26.55;nan;100760.63;4937925;28;20655;-75
2023/07/14 10:33:20;;;;;;;10.40;7.50;;;;;;;26.66;nan;100763.78;4938904;29;20042;-74
2023/07/14 10:35:46;;;;;;;9.70;7.65;;;;;;;26.72;nan;100748.94;4936949;28;20027;-71
2023/07/14 10:38:39;;;;;;;9.80;6.85;;;;;;;26.89;nan;100751.56;4938560;28;20475;-71
2023/07/14 10:41:08;;;;;;;11.13;7.15;;;;;;;26.92;nan;100748.22;4936545;29;20031;-71
2023/07/14 10:43:40;;;;;;;14.27;8.10;;;;;;;27.06;nan;100752.59;4940761;28;20078;-71
2023/07/14 10:46:40;;;;;;;9.23;7.20;;;;;;;27.05;nan;100746.38;4925219;29;20032;-72
2023/07/14 10:49:15;;;;;;;8.10;6.45;;;;;;;27.14;nan;100746.34;4939004;28;20047;-71
2023/07/14 10:51:50;;;;;;;10.50;6.63;;;;;;;27.21;nan;100746.63;4936797;28;20031;-72
2023/07/14 10:54:21;;;;;;;9.90;7.38;;;;;;;27.25;nan;100747.56;4936911;29;20082;-72
2023/07/14 10:56:52;;;;;;;9.75;7.20;;;;;;;27.26;nan;100742.94;4930286;29;20028;-74
2023/07/14 10:59:27;;;;;;;9.35;6.57;;;;;;;27.27;nan;100741.81;4940908;29;20086;-74
2023/07/14 11:02:12;;;;;;;9.07;6.45;;;;;;;27.28;nan;100733.38;4931602;29;20047;-75
2023/07/14 11:05:00;;;;;;;8.98;5.85;;;;;;;27.39;nan;100720.25;4925912;28;20023;-73
2023/07/14 11:07:31;;;;;;;9.05;6.20;;;;;;;27.51;nan;100722.22;4928680;29;20043;-73
2023/07/14 11:10:01;;;;;;;11.43;6.72;;;;;;;27.52;nan;100713.00;4944088;28;20027;-76
2023/07/14 11:12:41;;;;;;;11.07;6.55;;;;;;;27.59;nan;100724.06;4927275;29;20038;-73
2023/07/14 11:15:12;;;;;;;8.10;6.45;;;;;;;27.64;nan;100721.16;4936446;28;20114;-72
2023/07/14 11:17:55;;;;;;;9.93;5.88;;;;;;;27.62;nan;100712.56;4922147;28;20034;-72
2023/07/14 11:20:33;;;;;;;12.00;5.60;;;;;;;27.71;nan;100716.00;4939483;29;20380;-74
2023/07/14 11:23:27;;;;;;;6.63;5.90;;;;;;;27.78;nan;100716.25;4937149;29;20034;-74
2023/07/14 11:26:01;;;;;;;12.52;7.53;;;;;;;27.77;nan;100720.09;4938118;28;20278;-74
2023/07/14 11:28:27;;;;;;;8.98;6.68;;;;;;;27.66;nan;100718.91;4936275;28;20031;-74
2023/07/14 11:30:57;;;;;;;19.85;9.95;;;;;;;27.66;nan;100716.19;4928336;29;20588;-74
2023/07/14 11:33:26;;;;;;;12.10;7.60;;;;;;;27.62;nan;100717.97;4938096;28;20091;-74
2023/07/14 11:35:54;;;;;;;9.20;7.18;;;;;;;27.56;nan;100708.50;4921845;29;20441;-73
2023/07/14 11:38:20;;;;;;;7.82;6.80;;;;;;;27.67;nan;100708.88;4941863;28;20024;-73
2023/07/14 11:40:49;;;;;;;10.63;6.65;;;;;;;27.76;nan;100707.66;4940773;28;20035;-73
2023/07/14 11:43:20;;;;;;;;;;;;;;;27.74;nan;100706.41;4941402;28;20478;-71